sensor_id;sensor_type;location;lat;lon;timestamp;P1;durP1;ratioP1;P2;durP2;ratioP2
71343;SDS011;59146;43.850;25.948;2023-03-02T00:01:40;42.65;;;24.52;;
71343;SDS011;59146;43.850;25.948;2023-03-02T00:04:54;38.50;;;23.10;;
71343;SDS011;59146;43.850;25.948;2023-03-02T00:07:07;42.10;;;22.88;;
71343;SDS011;59146;43.850;25.948;2023-03-02T00:09:34;37.70;;;22.63;;
71343;SDS011;59146;43.850;25.948;2023-03-02T00:12:01;39.20;;;23.10;;
71343;SDS011;59146;43.850;25.948;2023-03-02T00:14:29;40.47;;;24.25;;
71343;SDS011;59146;43.850;25.948;2023-03-02T00:16:54;40.95;;;22.42;;
71343;SDS011;59146;43.850;25.948;2023-03-02T00:19:20;36.65;;;21.83;;
71343;SDS011;59146;43.850;25.948;2023-03-02T00:21:45;37.00;;;20.98;;
71343;SDS011;59146;43.850;25.948;2023-03-02T00:24:11;44.08;;;23.23;;
71343;SDS011;59146;43.850;25.948;2023-03-02T00:26:38;41.53;;;21.17;;
71343;SDS011;59146;43.850;25.948;2023-03-02T00:29:04;36.95;;;22.27;;
71343;SDS011;59146;43.850;25.948;2023-03-02T00:31:29;39.45;;;22.58;;
71343;SDS011;59146;43.850;25.948;2023-03-02T00:33:55;40.38;;;23.05;;
71343;SDS011;59146;43.850;25.948;2023-03-02T00:36:20;41.88;;;23.58;;
71343;SDS011;59146;43.850;25.948;2023-03-02T00:38:48;37.28;;;21.58;;
71343;SDS011;59146;43.850;25.948;2023-03-02T00:41:16;39.90;;;21.13;;
71343;SDS011;59146;43.850;25.948;2023-03-02T00:43:41;39.92;;;21.38;;
71343;SDS011;59146;43.850;25.948;2023-03-02T00:46:08;40.25;;;22.08;;
71343;SDS011;59146;43.850;25.948;2023-03-02T00:48:38;41.17;;;22.65;;
71343;SDS011;59146;43.850;25.948;2023-03-02T00:51:03;34.28;;;19.58;;
71343;SDS011;59146;43.850;25.948;2023-03-02T00:53:30;39.15;;;21.13;;
71343;SDS011;59146;43.850;25.948;2023-03-02T00:55:56;39.13;;;24.27;;
71343;SDS011;59146;43.850;25.948;2023-03-02T00:58:21;40.60;;;23.33;;
71343;SDS011;59146;43.850;25.948;2023-03-02T01:00:47;38.15;;;23.40;;
71343;SDS011;59146;43.850;25.948;2023-03-02T01:03:12;43.88;;;23.90;;
71343;SDS011;59146;43.850;25.948;2023-03-02T01:05:38;41.50;;;22.80;;
71343;SDS011;59146;43.850;25.948;2023-03-02T01:08:04;35.75;;;21.50;;
71343;SDS011;59146;43.850;25.948;2023-03-02T01:10:30;37.83;;;23.80;;
71343;SDS011;59146;43.850;25.948;2023-03-02T01:12:56;46.03;;;26.15;;
71343;SDS011;59146;43.850;25.948;2023-03-02T01:15:22;44.30;;;24.45;;
71343;SDS011;59146;43.850;25.948;2023-03-02T01:17:47;45.05;;;24.98;;
71343;SDS011;59146;43.850;25.948;2023-03-02T01:20:13;41.95;;;24.02;;
71343;SDS011;59146;43.850;25.948;2023-03-02T01:22:39;40.17;;;23.35;;
71343;SDS011;59146;43.850;25.948;2023-03-02T01:25:06;45.13;;;25.70;;
71343;SDS011;59146;43.850;25.948;2023-03-02T01:27:31;41.58;;;24.63;;
71343;SDS011;59146;43.850;25.948;2023-03-02T01:29:57;42.88;;;24.00;;
71343;SDS011;59146;43.850;25.948;2023-03-02T01:32:22;40.35;;;23.05;;
71343;SDS011;59146;43.850;25.948;2023-03-02T01:34:48;44.45;;;23.20;;
71343;SDS011;59146;43.850;25.948;2023-03-02T01:37:13;40.05;;;23.55;;
71343;SDS011;59146;43.850;25.948;2023-03-02T01:39:39;46.60;;;25.75;;
71343;SDS011;59146;43.850;25.948;2023-03-02T01:42:04;44.50;;;24.60;;
71343;SDS011;59146;43.850;25.948;2023-03-02T01:47:23;40.60;;;24.27;;
71343;SDS011;59146;43.850;25.948;2023-03-02T01:52:39;38.92;;;24.38;;
71343;SDS011;59146;43.850;25.948;2023-03-02T01:55:06;38.97;;;22.70;;
71343;SDS011;59146;43.850;25.948;2023-03-02T02:00:08;38.42;;;22.23;;
71343;SDS011;59146;43.850;25.948;2023-03-02T02:02:37;37.95;;;22.67;;
71343;SDS011;59146;43.850;25.948;2023-03-02T02:05:06;42.72;;;23.02;;
71343;SDS011;59146;43.850;25.948;2023-03-02T02:07:37;41.05;;;23.20;;
71343;SDS011;59146;43.850;25.948;2023-03-02T02:10:03;45.70;;;25.38;;
71343;SDS011;59146;43.850;25.948;2023-03-02T02:12:29;42.90;;;24.15;;
71343;SDS011;59146;43.850;25.948;2023-03-02T02:14:55;44.03;;;25.45;;
71343;SDS011;59146;43.850;25.948;2023-03-02T02:17:25;42.85;;;24.08;;
71343;SDS011;59146;43.850;25.948;2023-03-02T02:22:43;39.80;;;19.38;;
71343;SDS011;59146;43.850;25.948;2023-03-02T02:28:13;44.42;;;26.15;;
71343;SDS011;59146;43.850;25.948;2023-03-02T02:30:45;54.53;;;25.85;;
71343;SDS011;59146;43.850;25.948;2023-03-02T02:33:15;48.65;;;25.77;;
71343;SDS011;59146;43.850;25.948;2023-03-02T02:35:45;50.40;;;26.90;;
71343;SDS011;59146;43.850;25.948;2023-03-02T02:38:13;52.00;;;27.92;;
71343;SDS011;59146;43.850;25.948;2023-03-02T02:43:13;60.53;;;30.25;;
71343;SDS011;59146;43.850;25.948;2023-03-02T02:45:42;46.60;;;27.23;;
71343;SDS011;59146;43.850;25.948;2023-03-02T02:48:10;56.17;;;28.45;;
71343;SDS011;59146;43.850;25.948;2023-03-02T02:50:40;55.67;;;30.05;;
71343;SDS011;59146;43.850;25.948;2023-03-02T02:53:11;55.00;;;31.23;;
71343;SDS011;59146;43.850;25.948;2023-03-02T02:55:41;62.03;;;30.73;;
71343;SDS011;59146;43.850;25.948;2023-03-02T02:58:50;53.55;;;30.08;;
71343;SDS011;59146;43.850;25.948;2023-03-02T03:01:06;52.00;;;28.70;;
71343;SDS011;59146;43.850;25.948;2023-03-02T03:03:33;56.00;;;28.65;;
71343;SDS011;59146;43.850;25.948;2023-03-02T03:06:03;52.03;;;31.00;;
71343;SDS011;59146;43.850;25.948;2023-03-02T03:09:05;56.15;;;29.92;;
71343;SDS011;59146;43.850;25.948;2023-03-02T03:11:25;57.00;;;31.75;;
71343;SDS011;59146;43.850;25.948;2023-03-02T03:14:06;69.10;;;32.92;;
71343;SDS011;59146;43.850;25.948;2023-03-02T03:16:33;53.78;;;30.58;;
71343;SDS011;59146;43.850;25.948;2023-03-02T03:19:04;64.85;;;32.03;;
71343;SDS011;59146;43.850;25.948;2023-03-02T03:22:00;63.22;;;33.28;;
71343;SDS011;59146;43.850;25.948;2023-03-02T03:24:26;55.88;;;32.63;;
71343;SDS011;59146;43.850;25.948;2023-03-02T03:26:53;61.05;;;33.70;;
71343;SDS011;59146;43.850;25.948;2023-03-02T03:29:21;57.75;;;32.42;;
71343;SDS011;59146;43.850;25.948;2023-03-02T03:31:49;57.75;;;34.88;;
71343;SDS011;59146;43.850;25.948;2023-03-02T03:34:15;60.80;;;33.05;;
71343;SDS011;59146;43.850;25.948;2023-03-02T03:36:40;59.95;;;33.03;;
71343;SDS011;59146;43.850;25.948;2023-03-02T03:39:07;59.80;;;33.75;;
71343;SDS011;59146;43.850;25.948;2023-03-02T03:41:34;57.58;;;31.35;;
71343;SDS011;59146;43.850;25.948;2023-03-02T03:44:00;58.20;;;33.47;;
71343;SDS011;59146;43.850;25.948;2023-03-02T03:46:25;61.42;;;32.42;;
71343;SDS011;59146;43.850;25.948;2023-03-02T03:48:51;57.45;;;33.63;;
71343;SDS011;59146;43.850;25.948;2023-03-02T03:51:16;58.92;;;32.97;;
71343;SDS011;59146;43.850;25.948;2023-03-02T03:53:42;57.05;;;32.53;;
71343;SDS011;59146;43.850;25.948;2023-03-02T03:56:08;59.88;;;33.38;;
71343;SDS011;59146;43.850;25.948;2023-03-02T03:58:34;58.42;;;32.53;;
71343;SDS011;59146;43.850;25.948;2023-03-02T04:00:59;62.13;;;34.80;;
71343;SDS011;59146;43.850;25.948;2023-03-02T04:03:25;60.88;;;33.70;;
71343;SDS011;59146;43.850;25.948;2023-03-02T04:05:51;60.88;;;33.67;;
71343;SDS011;59146;43.850;25.948;2023-03-02T04:08:17;59.90;;;32.97;;
71343;SDS011;59146;43.850;25.948;2023-03-02T04:10:43;59.55;;;33.47;;
71343;SDS011;59146;43.850;25.948;2023-03-02T04:13:09;60.47;;;32.38;;
71343;SDS011;59146;43.850;25.948;2023-03-02T04:15:35;59.05;;;32.40;;
71343;SDS011;59146;43.850;25.948;2023-03-02T04:18:01;61.83;;;36.00;;
71343;SDS011;59146;43.850;25.948;2023-03-02T04:20:27;54.22;;;31.67;;
71343;SDS011;59146;43.850;25.948;2023-03-02T04:22:53;61.35;;;33.17;;
71343;SDS011;59146;43.850;25.948;2023-03-02T04:25:21;56.83;;;32.35;;
71343;SDS011;59146;43.850;25.948;2023-03-02T04:27:49;56.88;;;31.85;;
71343;SDS011;59146;43.850;25.948;2023-03-02T04:30:17;58.78;;;32.78;;
71343;SDS011;59146;43.850;25.948;2023-03-02T04:32:44;53.72;;;31.20;;
71343;SDS011;59146;43.850;25.948;2023-03-02T04:35:10;62.35;;;32.90;;
71343;SDS011;59146;43.850;25.948;2023-03-02T04:37:38;56.47;;;31.77;;
71343;SDS011;59146;43.850;25.948;2023-03-02T04:40:04;56.70;;;32.65;;
71343;SDS011;59146;43.850;25.948;2023-03-02T04:42:31;59.13;;;34.92;;
71343;SDS011;59146;43.850;25.948;2023-03-02T04:44:56;60.72;;;33.35;;
71343;SDS011;59146;43.850;25.948;2023-03-02T04:47:22;55.40;;;33.25;;
71343;SDS011;59146;43.850;25.948;2023-03-02T04:49:47;56.47;;;33.05;;
71343;SDS011;59146;43.850;25.948;2023-03-02T04:52:14;61.13;;;33.70;;
71343;SDS011;59146;43.850;25.948;2023-03-02T04:54:40;55.78;;;30.73;;
71343;SDS011;59146;43.850;25.948;2023-03-02T04:57:05;58.95;;;34.70;;
71343;SDS011;59146;43.850;25.948;2023-03-02T04:59:33;55.65;;;33.88;;
71343;SDS011;59146;43.850;25.948;2023-03-02T05:01:59;64.15;;;35.58;;
71343;SDS011;59146;43.850;25.948;2023-03-02T05:04:25;65.68;;;33.88;;
71343;SDS011;59146;43.850;25.948;2023-03-02T05:06:51;66.60;;;34.60;;
71343;SDS011;59146;43.850;25.948;2023-03-02T05:09:17;62.88;;;36.05;;
71343;SDS011;59146;43.850;25.948;2023-03-02T05:11:43;62.55;;;33.25;;
71343;SDS011;59146;43.850;25.948;2023-03-02T05:14:09;63.13;;;33.05;;
71343;SDS011;59146;43.850;25.948;2023-03-02T05:16:37;66.85;;;35.00;;
71343;SDS011;59146;43.850;25.948;2023-03-02T05:19:04;62.33;;;33.60;;
71343;SDS011;59146;43.850;25.948;2023-03-02T05:21:31;64.80;;;33.50;;
71343;SDS011;59146;43.850;25.948;2023-03-02T05:23:57;58.67;;;33.97;;
71343;SDS011;59146;43.850;25.948;2023-03-02T05:26:23;62.05;;;34.72;;
71343;SDS011;59146;43.850;25.948;2023-03-02T05:28:48;58.95;;;33.05;;
71343;SDS011;59146;43.850;25.948;2023-03-02T05:31:18;59.42;;;34.35;;
71343;SDS011;59146;43.850;25.948;2023-03-02T05:33:47;63.58;;;36.25;;
71343;SDS011;59146;43.850;25.948;2023-03-02T05:36:13;59.45;;;34.33;;
71343;SDS011;59146;43.850;25.948;2023-03-02T05:38:39;66.10;;;37.47;;
71343;SDS011;59146;43.850;25.948;2023-03-02T05:41:04;60.85;;;34.95;;
71343;SDS011;59146;43.850;25.948;2023-03-02T05:43:30;64.80;;;34.15;;
71343;SDS011;59146;43.850;25.948;2023-03-02T05:45:56;58.60;;;34.58;;
71343;SDS011;59146;43.850;25.948;2023-03-02T05:48:27;68.43;;;37.08;;
71343;SDS011;59146;43.850;25.948;2023-03-02T05:50:54;70.72;;;36.30;;
71343;SDS011;59146;43.850;25.948;2023-03-02T05:53:20;68.25;;;36.25;;
71343;SDS011;59146;43.850;25.948;2023-03-02T05:55:46;69.28;;;36.70;;
71343;SDS011;59146;43.850;25.948;2023-03-02T05:58:12;63.80;;;33.60;;
71343;SDS011;59146;43.850;25.948;2023-03-02T06:00:40;59.60;;;31.85;;
71343;SDS011;59146;43.850;25.948;2023-03-02T06:03:05;60.50;;;33.55;;
71343;SDS011;59146;43.850;25.948;2023-03-02T06:05:31;61.28;;;34.50;;
71343;SDS011;59146;43.850;25.948;2023-03-02T06:07:56;67.55;;;34.22;;
71343;SDS011;59146;43.850;25.948;2023-03-02T06:10:22;57.35;;;30.67;;
71343;SDS011;59146;43.850;25.948;2023-03-02T06:12:47;62.33;;;34.17;;
71343;SDS011;59146;43.850;25.948;2023-03-02T06:15:12;62.08;;;35.88;;
71343;SDS011;59146;43.850;25.948;2023-03-02T06:17:38;61.00;;;34.60;;
71343;SDS011;59146;43.850;25.948;2023-03-02T06:20:04;63.08;;;33.10;;
71343;SDS011;59146;43.850;25.948;2023-03-02T06:22:35;66.45;;;35.97;;
71343;SDS011;59146;43.850;25.948;2023-03-02T06:25:11;69.18;;;33.95;;
71343;SDS011;59146;43.850;25.948;2023-03-02T06:27:39;64.32;;;34.05;;
71343;SDS011;59146;43.850;25.948;2023-03-02T06:30:06;61.30;;;33.80;;
71343;SDS011;59146;43.850;25.948;2023-03-02T06:32:33;62.13;;;34.70;;
71343;SDS011;59146;43.850;25.948;2023-03-02T06:35:00;72.35;;;36.28;;
71343;SDS011;59146;43.850;25.948;2023-03-02T06:37:26;72.88;;;37.47;;
71343;SDS011;59146;43.850;25.948;2023-03-02T06:39:53;64.72;;;33.28;;
71343;SDS011;59146;43.850;25.948;2023-03-02T06:42:19;60.42;;;32.67;;
71343;SDS011;59146;43.850;25.948;2023-03-02T06:44:44;71.75;;;38.10;;
71343;SDS011;59146;43.850;25.948;2023-03-02T06:47:10;65.13;;;34.88;;
71343;SDS011;59146;43.850;25.948;2023-03-02T06:49:35;66.38;;;33.72;;
71343;SDS011;59146;43.850;25.948;2023-03-02T06:52:01;67.70;;;32.65;;
71343;SDS011;59146;43.850;25.948;2023-03-02T06:54:26;62.15;;;33.47;;
71343;SDS011;59146;43.850;25.948;2023-03-02T06:56:51;60.17;;;33.53;;
71343;SDS011;59146;43.850;25.948;2023-03-02T06:59:17;66.40;;;33.70;;
71343;SDS011;59146;43.850;25.948;2023-03-02T07:01:42;65.35;;;32.83;;
71343;SDS011;59146;43.850;25.948;2023-03-02T07:04:08;70.30;;;38.70;;
71343;SDS011;59146;43.850;25.948;2023-03-02T07:06:33;69.25;;;36.67;;
71343;SDS011;59146;43.850;25.948;2023-03-02T07:08:59;69.05;;;37.70;;
71343;SDS011;59146;43.850;25.948;2023-03-02T07:11:25;67.60;;;35.53;;
71343;SDS011;59146;43.850;25.948;2023-03-02T07:13:51;66.97;;;35.03;;
71343;SDS011;59146;43.850;25.948;2023-03-02T07:16:16;63.63;;;36.35;;
71343;SDS011;59146;43.850;25.948;2023-03-02T07:18:42;68.10;;;34.78;;
71343;SDS011;59146;43.850;25.948;2023-03-02T07:21:07;60.30;;;29.58;;
71343;SDS011;59146;43.850;25.948;2023-03-02T07:23:33;65.28;;;32.28;;
71343;SDS011;59146;43.850;25.948;2023-03-02T07:25:58;61.40;;;34.17;;
71343;SDS011;59146;43.850;25.948;2023-03-02T07:28:24;70.20;;;35.03;;
71343;SDS011;59146;43.850;25.948;2023-03-02T07:30:50;70.03;;;35.40;;
71343;SDS011;59146;43.850;25.948;2023-03-02T07:33:17;65.90;;;32.95;;
71343;SDS011;59146;43.850;25.948;2023-03-02T07:35:43;61.45;;;34.08;;
71343;SDS011;59146;43.850;25.948;2023-03-02T07:38:08;65.63;;;35.50;;
71343;SDS011;59146;43.850;25.948;2023-03-02T07:40:33;60.10;;;33.40;;
71343;SDS011;59146;43.850;25.948;2023-03-02T07:42:59;61.58;;;33.53;;
71343;SDS011;59146;43.850;25.948;2023-03-02T07:45:24;61.00;;;31.45;;
71343;SDS011;59146;43.850;25.948;2023-03-02T07:47:50;57.20;;;31.83;;
71343;SDS011;59146;43.850;25.948;2023-03-02T07:50:16;57.03;;;31.30;;
71343;SDS011;59146;43.850;25.948;2023-03-02T07:52:42;64.03;;;33.63;;
71343;SDS011;59146;43.850;25.948;2023-03-02T07:55:07;63.90;;;31.08;;
71343;SDS011;59146;43.850;25.948;2023-03-02T07:57:33;65.60;;;32.90;;
71343;SDS011;59146;43.850;25.948;2023-03-02T07:59:59;67.55;;;36.17;;
71343;SDS011;59146;43.850;25.948;2023-03-02T08:02:24;74.90;;;37.80;;
71343;SDS011;59146;43.850;25.948;2023-03-02T08:04:50;70.53;;;34.10;;
71343;SDS011;59146;43.850;25.948;2023-03-02T08:07:16;67.10;;;34.63;;
71343;SDS011;59146;43.850;25.948;2023-03-02T08:09:42;69.00;;;34.85;;
71343;SDS011;59146;43.850;25.948;2023-03-02T08:12:08;66.65;;;34.40;;
71343;SDS011;59146;43.850;25.948;2023-03-02T08:14:33;69.40;;;35.17;;
71343;SDS011;59146;43.850;25.948;2023-03-02T08:16:59;68.35;;;36.30;;
71343;SDS011;59146;43.850;25.948;2023-03-02T08:19:24;67.10;;;34.63;;
71343;SDS011;59146;43.850;25.948;2023-03-02T08:21:50;66.13;;;34.65;;
71343;SDS011;59146;43.850;25.948;2023-03-02T08:24:16;67.68;;;35.65;;
71343;SDS011;59146;43.850;25.948;2023-03-02T08:26:41;71.60;;;35.28;;
71343;SDS011;59146;43.850;25.948;2023-03-02T08:29:07;69.10;;;34.38;;
71343;SDS011;59146;43.850;25.948;2023-03-02T08:31:32;71.93;;;39.88;;
71343;SDS011;59146;43.850;25.948;2023-03-02T08:33:57;71.82;;;37.50;;
71343;SDS011;59146;43.850;25.948;2023-03-02T08:36:25;61.03;;;33.08;;
71343;SDS011;59146;43.850;25.948;2023-03-02T08:38:51;70.55;;;33.53;;
71343;SDS011;59146;43.850;25.948;2023-03-02T08:41:18;66.20;;;34.95;;
71343;SDS011;59146;43.850;25.948;2023-03-02T08:43:45;67.45;;;36.33;;
71343;SDS011;59146;43.850;25.948;2023-03-02T08:46:11;74.40;;;35.97;;
71343;SDS011;59146;43.850;25.948;2023-03-02T08:48:38;67.18;;;32.85;;
71343;SDS011;59146;43.850;25.948;2023-03-02T08:51:05;71.00;;;38.65;;
71343;SDS011;59146;43.850;25.948;2023-03-02T08:53:37;65.15;;;31.38;;
71343;SDS011;59146;43.850;25.948;2023-03-02T08:56:04;73.43;;;34.65;;
71343;SDS011;59146;43.850;25.948;2023-03-02T08:58:32;71.70;;;38.33;;
71343;SDS011;59146;43.850;25.948;2023-03-02T09:00:58;75.10;;;38.10;;
71343;SDS011;59146;43.850;25.948;2023-03-02T09:03:23;66.00;;;32.47;;
71343;SDS011;59146;43.850;25.948;2023-03-02T09:05:48;61.50;;;31.30;;
71343;SDS011;59146;43.850;25.948;2023-03-02T09:08:15;73.93;;;38.67;;
71343;SDS011;59146;43.850;25.948;2023-03-02T09:10:40;73.85;;;37.92;;
71343;SDS011;59146;43.850;25.948;2023-03-02T09:13:06;74.68;;;37.70;;
71343;SDS011;59146;43.850;25.948;2023-03-02T09:15:31;75.97;;;37.95;;
71343;SDS011;59146;43.850;25.948;2023-03-02T09:17:56;75.70;;;39.13;;
71343;SDS011;59146;43.850;25.948;2023-03-02T09:20:22;77.43;;;40.72;;
71343;SDS011;59146;43.850;25.948;2023-03-02T09:22:47;68.65;;;37.30;;
71343;SDS011;59146;43.850;25.948;2023-03-02T09:25:15;73.72;;;40.63;;
71343;SDS011;59146;43.850;25.948;2023-03-02T09:27:42;72.03;;;37.72;;
71343;SDS011;59146;43.850;25.948;2023-03-02T09:30:08;74.10;;;38.83;;
71343;SDS011;59146;43.850;25.948;2023-03-02T09:32:34;66.20;;;36.67;;
71343;SDS011;59146;43.850;25.948;2023-03-02T09:35:00;63.00;;;34.03;;
71343;SDS011;59146;43.850;25.948;2023-03-02T09:37:29;68.22;;;35.67;;
71343;SDS011;59146;43.850;25.948;2023-03-02T09:39:54;71.38;;;38.55;;
71343;SDS011;59146;43.850;25.948;2023-03-02T09:42:32;66.30;;;34.72;;
71343;SDS011;59146;43.850;25.948;2023-03-02T09:45:14;67.70;;;37.30;;
71343;SDS011;59146;43.850;25.948;2023-03-02T09:50:32;63.83;;;35.30;;
71343;SDS011;59146;43.850;25.948;2023-03-02T09:56:16;71.22;;;35.30;;
71343;SDS011;59146;43.850;25.948;2023-03-02T09:58:55;75.40;;;39.47;;
71343;SDS011;59146;43.850;25.948;2023-03-02T10:02:01;65.00;;;33.42;;
71343;SDS011;59146;43.850;25.948;2023-03-02T10:04:23;58.90;;;32.38;;
71343;SDS011;59146;43.850;25.948;2023-03-02T10:06:54;66.55;;;34.70;;
71343;SDS011;59146;43.850;25.948;2023-03-02T10:09:26;69.57;;;34.88;;
71343;SDS011;59146;43.850;25.948;2023-03-02T10:12:02;68.72;;;36.80;;
71343;SDS011;59146;43.850;25.948;2023-03-02T10:14:43;66.18;;;36.17;;
71343;SDS011;59146;43.850;25.948;2023-03-02T10:19:51;65.28;;;35.28;;
71343;SDS011;59146;43.850;25.948;2023-03-02T10:22:27;62.33;;;32.25;;
71343;SDS011;59146;43.850;25.948;2023-03-02T10:27:59;66.45;;;31.80;;
71343;SDS011;59146;43.850;25.948;2023-03-02T10:30:35;59.88;;;33.28;;
71343;SDS011;59146;43.850;25.948;2023-03-02T10:33:03;63.42;;;33.95;;
71343;SDS011;59146;43.850;25.948;2023-03-02T10:35:43;59.58;;;32.90;;
71343;SDS011;59146;43.850;25.948;2023-03-02T10:38:12;56.60;;;33.22;;
71343;SDS011;59146;43.850;25.948;2023-03-02T10:40:46;57.05;;;32.22;;
71343;SDS011;59146;43.850;25.948;2023-03-02T10:43:16;59.70;;;32.33;;
71343;SDS011;59146;43.850;25.948;2023-03-02T10:45:56;61.20;;;33.25;;
71343;SDS011;59146;43.850;25.948;2023-03-02T10:48:22;59.97;;;32.75;;
71343;SDS011;59146;43.850;25.948;2023-03-02T10:50:51;57.60;;;32.20;;
71343;SDS011;59146;43.850;25.948;2023-03-02T10:53:18;50.92;;;30.38;;
71343;SDS011;59146;43.850;25.948;2023-03-02T10:55:47;54.70;;;31.75;;
71343;SDS011;59146;43.850;25.948;2023-03-02T11:03:27;60.38;;;33.55;;
71343;SDS011;59146;43.850;25.948;2023-03-02T11:05:54;56.47;;;28.83;;
71343;SDS011;59146;43.850;25.948;2023-03-02T11:08:21;62.17;;;33.97;;
71343;SDS011;59146;43.850;25.948;2023-03-02T11:10:59;52.72;;;31.20;;
71343;SDS011;59146;43.850;25.948;2023-03-02T11:13:28;50.08;;;30.25;;
71343;SDS011;59146;43.850;25.948;2023-03-02T11:15:56;52.67;;;29.00;;
71343;SDS011;59146;43.850;25.948;2023-03-02T11:20:51;49.83;;;27.52;;
71343;SDS011;59146;43.850;25.948;2023-03-02T11:26:27;48.55;;;28.08;;
71343;SDS011;59146;43.850;25.948;2023-03-02T11:29:11;50.58;;;29.38;;
71343;SDS011;59146;43.850;25.948;2023-03-02T11:31:52;48.35;;;28.38;;
71343;SDS011;59146;43.850;25.948;2023-03-02T11:34:41;52.58;;;29.50;;
71343;SDS011;59146;43.850;25.948;2023-03-02T11:42:39;47.33;;;28.38;;
71343;SDS011;59146;43.850;25.948;2023-03-02T11:47:55;44.72;;;26.45;;
71343;SDS011;59146;43.850;25.948;2023-03-02T11:50:33;42.75;;;25.05;;
71343;SDS011;59146;43.850;25.948;2023-03-02T11:53:06;45.97;;;27.38;;
71343;SDS011;59146;43.850;25.948;2023-03-02T11:55:39;45.50;;;26.67;;
71343;SDS011;59146;43.850;25.948;2023-03-02T11:58:10;48.88;;;25.95;;
71343;SDS011;59146;43.850;25.948;2023-03-02T12:00:41;42.75;;;24.50;;
71343;SDS011;59146;43.850;25.948;2023-03-02T12:08:06;46.03;;;25.00;;
71343;SDS011;59146;43.850;25.948;2023-03-02T12:13:22;45.03;;;25.83;;
71343;SDS011;59146;43.850;25.948;2023-03-02T12:15:51;41.92;;;23.10;;
71343;SDS011;59146;43.850;25.948;2023-03-02T12:20:45;42.05;;;24.17;;
71343;SDS011;59146;43.850;25.948;2023-03-02T12:23:39;41.30;;;22.60;;
71343;SDS011;59146;43.850;25.948;2023-03-02T12:29:03;38.97;;;23.50;;
71343;SDS011;59146;43.850;25.948;2023-03-02T12:31:48;48.05;;;24.73;;
71343;SDS011;59146;43.850;25.948;2023-03-02T12:36:57;39.88;;;22.95;;
71343;SDS011;59146;43.850;25.948;2023-03-02T12:48:05;42.40;;;23.13;;
71343;SDS011;59146;43.850;25.948;2023-03-02T12:50:46;43.15;;;23.48;;
71343;SDS011;59146;43.850;25.948;2023-03-02T12:53:16;47.22;;;24.70;;
71343;SDS011;59146;43.850;25.948;2023-03-02T12:55:43;41.50;;;22.10;;
71343;SDS011;59146;43.850;25.948;2023-03-02T12:58:20;47.58;;;23.10;;
71343;SDS011;59146;43.850;25.948;2023-03-02T13:00:55;42.00;;;22.80;;
71343;SDS011;59146;43.850;25.948;2023-03-02T13:03:26;42.33;;;22.90;;
71343;SDS011;59146;43.850;25.948;2023-03-02T13:06:03;41.55;;;23.60;;
71343;SDS011;59146;43.850;25.948;2023-03-02T13:08:36;38.45;;;21.63;;
71343;SDS011;59146;43.850;25.948;2023-03-02T13:11:01;34.20;;;21.13;;
71343;SDS011;59146;43.850;25.948;2023-03-02T13:16:04;37.67;;;20.92;;
71343;SDS011;59146;43.850;25.948;2023-03-02T13:18:53;40.25;;;21.13;;
71343;SDS011;59146;43.850;25.948;2023-03-02T13:21:42;41.25;;;22.02;;
71343;SDS011;59146;43.850;25.948;2023-03-02T13:26:59;34.85;;;21.00;;
71343;SDS011;59146;43.850;25.948;2023-03-02T13:29:29;42.85;;;22.83;;
71343;SDS011;59146;43.850;25.948;2023-03-02T13:31:56;37.47;;;22.00;;
71343;SDS011;59146;43.850;25.948;2023-03-02T13:34:32;37.78;;;20.02;;
71343;SDS011;59146;43.850;25.948;2023-03-02T13:36:59;34.83;;;19.48;;
71343;SDS011;59146;43.850;25.948;2023-03-02T13:39:25;38.03;;;22.27;;
71343;SDS011;59146;43.850;25.948;2023-03-02T13:41:57;35.95;;;20.35;;
71343;SDS011;59146;43.850;25.948;2023-03-02T13:44:31;39.15;;;20.15;;
71343;SDS011;59146;43.850;25.948;2023-03-02T13:46:58;35.80;;;21.13;;
71343;SDS011;59146;43.850;25.948;2023-03-02T13:49:29;43.88;;;23.70;;
71343;SDS011;59146;43.850;25.948;2023-03-02T13:52:02;40.22;;;22.55;;
71343;SDS011;59146;43.850;25.948;2023-03-02T13:54:31;34.05;;;19.77;;
71343;SDS011;59146;43.850;25.948;2023-03-02T13:56:59;33.20;;;19.95;;
71343;SDS011;59146;43.850;25.948;2023-03-02T13:59:26;43.53;;;22.80;;
71343;SDS011;59146;43.850;25.948;2023-03-02T14:01:53;38.08;;;21.98;;
71343;SDS011;59146;43.850;25.948;2023-03-02T14:04:19;39.80;;;22.05;;
71343;SDS011;59146;43.850;25.948;2023-03-02T14:06:47;36.03;;;21.40;;
71343;SDS011;59146;43.850;25.948;2023-03-02T14:09:17;41.92;;;23.48;;
71343;SDS011;59146;43.850;25.948;2023-03-02T14:11:44;31.85;;;20.75;;
71343;SDS011;59146;43.850;25.948;2023-03-02T14:14:21;41.28;;;23.73;;
71343;SDS011;59146;43.850;25.948;2023-03-02T14:16:48;47.35;;;23.95;;
71343;SDS011;59146;43.850;25.948;2023-03-02T14:19:14;42.42;;;22.58;;
71343;SDS011;59146;43.850;25.948;2023-03-02T14:21:42;39.03;;;21.85;;
71343;SDS011;59146;43.850;25.948;2023-03-02T14:24:08;36.70;;;21.58;;
71343;SDS011;59146;43.850;25.948;2023-03-02T14:26:41;34.33;;;21.33;;
71343;SDS011;59146;43.850;25.948;2023-03-02T14:29:15;38.60;;;22.10;;
71343;SDS011;59146;43.850;25.948;2023-03-02T14:31:47;37.63;;;21.88;;
71343;SDS011;59146;43.850;25.948;2023-03-02T14:34:13;35.85;;;21.25;;
71343;SDS011;59146;43.850;25.948;2023-03-02T14:36:39;37.47;;;21.55;;
71343;SDS011;59146;43.850;25.948;2023-03-02T14:39:31;40.05;;;21.08;;
71343;SDS011;59146;43.850;25.948;2023-03-02T14:41:59;35.33;;;21.67;;
71343;SDS011;59146;43.850;25.948;2023-03-02T14:44:25;30.38;;;20.75;;
71343;SDS011;59146;43.850;25.948;2023-03-02T14:46:51;34.50;;;21.00;;
71343;SDS011;59146;43.850;25.948;2023-03-02T14:49:17;39.40;;;23.13;;
71343;SDS011;59146;43.850;25.948;2023-03-02T14:51:53;39.70;;;21.10;;
71343;SDS011;59146;43.850;25.948;2023-03-02T14:54:19;33.00;;;20.95;;
71343;SDS011;59146;43.850;25.948;2023-03-02T14:56:45;36.22;;;22.15;;
71343;SDS011;59146;43.850;25.948;2023-03-02T14:59:11;36.65;;;21.38;;
71343;SDS011;59146;43.850;25.948;2023-03-02T15:01:38;36.60;;;21.98;;
71343;SDS011;59146;43.850;25.948;2023-03-02T15:04:04;42.72;;;23.23;;
71343;SDS011;59146;43.850;25.948;2023-03-02T15:06:30;33.30;;;22.42;;
71343;SDS011;59146;43.850;25.948;2023-03-02T15:09:00;33.55;;;18.17;;
71343;SDS011;59146;43.850;25.948;2023-03-02T15:11:26;35.88;;;22.40;;
71343;SDS011;59146;43.850;25.948;2023-03-02T15:13:52;36.20;;;22.77;;
71343;SDS011;59146;43.850;25.948;2023-03-02T15:16:18;42.25;;;23.02;;
71343;SDS011;59146;43.850;25.948;2023-03-02T15:18:47;39.40;;;22.27;;
71343;SDS011;59146;43.850;25.948;2023-03-02T15:21:20;39.47;;;22.00;;
71343;SDS011;59146;43.850;25.948;2023-03-02T15:23:47;39.65;;;24.05;;
71343;SDS011;59146;43.850;25.948;2023-03-02T15:26:13;35.55;;;21.45;;
71343;SDS011;59146;43.850;25.948;2023-03-02T15:28:39;35.80;;;22.30;;
71343;SDS011;59146;43.850;25.948;2023-03-02T15:31:05;38.78;;;22.50;;
71343;SDS011;59146;43.850;25.948;2023-03-02T15:33:35;37.53;;;22.80;;